Terminal Aerodrome Forecast
Issued by NWS Topeka, KS

Home | Current Version | Previous Version | Text Only | Print | Product List | Glossary Off
Versions: 1 2 3 4 5 6 7 8 9 10 11 12 13 14 15 16 17 18 19

000
FTUS43 KTOP 230520
TAFTOP
TAF
KTOP 230520Z 2306/2406 18003KT P6SM SCT060
      TEMPO 2306/2309 1SM BR
     FM230900 30005KT P6SM VCSH BKN040
     FM231000 32007KT P6SM VCSH BKN050
     FM231500 33012KT P6SM BKN100=

USA.gov is the U.S. government's official web portal to all federal, state and local government web resources and services.